Terminal Aerodrome Forecast
Issued by NWS Cleveland, OH

Home | Current Version | Previous Version | Text Only | Print | Product List | Glossary Off
Versions: 1 2 3 4 5 6 7 8 9 10 11 12 13 14 15 16 17 18 19 20 21 22

932
FTUS41 KCLE 232335
TAFERI
TAF
KERI 232335Z 2400/2424 15004KT P6SM SCT200
     FM240700 17010G20KT P6SM VCSH SCT040 OVC100
     FM240900 18012G20KT P6SM -SHRA OVC040
     FM241100 21015G25KT P6SM OVC050 WS020/24050KT
     FM241800 23015G25KT P6SM SCT050 BKN080=

USA.gov is the U.S. government's official web portal to all federal, state and local government web resources and services.